sensor_id;sensor_type;location;lat;lon;timestamp;pressure;altitude;pressure_sealevel;temperature;humidity
51249;BME280;39642;47.556;18.728;2024-02-26T00:02:16;98765.78;;;21.61;36.15
51249;BME280;39642;47.556;18.728;2024-02-26T00:04:42;98764.94;;;21.61;36.16
51249;BME280;39642;47.556;18.728;2024-02-26T00:07:08;98767.59;;;21.61;36.14
51249;BME280;39642;47.556;18.728;2024-02-26T00:09:34;98769.41;;;21.60;36.17
51249;BME280;39642;47.556;18.728;2024-02-26T00:12:02;98765.91;;;21.60;36.15
51249;BME280;39642;47.556;18.728;2024-02-26T00:14:32;98762.44;;;21.59;36.19
51249;BME280;39642;47.556;18.728;2024-02-26T00:16:58;98773.03;;;21.59;36.16
51249;BME280;39642;47.556;18.728;2024-02-26T00:19:24;98765.09;;;21.59;36.20
51249;BME280;39642;47.556;18.728;2024-02-26T00:21:50;98757.13;;;21.59;36.19
51249;BME280;39642;47.556;18.728;2024-02-26T00:24:16;98752.78;;;21.58;36.27
51249;BME280;39642;47.556;18.728;2024-02-26T00:26:42;98757.97;;;21.60;36.27
51249;BME280;39642;47.556;18.728;2024-02-26T00:29:07;98762.44;;;21.59;36.11
51249;BME280;39642;47.556;18.728;2024-02-26T00:31:33;98757.97;;;21.60;36.25
51249;BME280;39642;47.556;18.728;2024-02-26T00:34:00;98751.84;;;21.59;36.29
51249;BME280;39642;47.556;18.728;2024-02-26T00:36:26;98757.97;;;21.60;36.23
51249;BME280;39642;47.556;18.728;2024-02-26T00:38:52;98755.31;;;21.60;36.18
51249;BME280;39642;47.556;18.728;2024-02-26T00:41:18;98750.03;;;21.60;36.27
51249;BME280;39642;47.556;18.728;2024-02-26T00:43:44;98747.38;;;21.60;36.26
51249;BME280;39642;47.556;18.728;2024-02-26T00:46:10;98748.22;;;21.60;36.29
51249;BME280;39642;47.556;18.728;2024-02-26T00:48:36;98750.84;;;21.60;36.26
51249;BME280;39642;47.556;18.728;2024-02-26T00:51:03;98755.19;;;21.61;36.24
51249;BME280;39642;47.556;18.728;2024-02-26T00:53:31;98750.75;;;21.62;36.24
51249;BME280;39642;47.556;18.728;2024-02-26T00:55:57;98748.09;;;21.62;36.27
51249;BME280;39642;47.556;18.728;2024-02-26T00:58:27;98744.56;;;21.61;36.17
51249;BME280;39642;47.556;18.728;2024-02-26T01:00:53;98743.63;;;21.62;36.26
51249;BME280;39642;47.556;18.728;2024-02-26T01:03:19;98731.34;;;21.61;36.21
51249;BME280;39642;47.556;18.728;2024-02-26T01:05:45;98732.19;;;21.62;36.23
51249;BME280;39642;47.556;18.728;2024-02-26T01:08:10;98735.69;;;21.62;36.23
51249;BME280;39642;47.556;18.728;2024-02-26T01:10:36;98725.19;;;21.61;36.24
51249;BME280;39642;47.556;18.728;2024-02-26T01:13:02;98723.38;;;21.61;36.19
51249;BME280;39642;47.556;18.728;2024-02-26T01:15:28;98718.09;;;21.61;36.36
51249;BME280;39642;47.556;18.728;2024-02-26T01:17:54;98721.72;;;21.60;36.33
51249;BME280;39642;47.556;18.728;2024-02-26T01:20:20;98719.91;;;21.61;36.27
51249;BME280;39642;47.556;18.728;2024-02-26T01:22:46;98722.56;;;21.61;36.34
51249;BME280;39642;47.556;18.728;2024-02-26T01:25:12;98715.59;;;21.60;36.30
51249;BME280;39642;47.556;18.728;2024-02-26T01:27:39;98710.28;;;21.60;36.37
51249;BME280;39642;47.556;18.728;2024-02-26T01:30:07;98713.87;;;21.59;36.41
51249;BME280;39642;47.556;18.728;2024-02-26T01:32:33;98707.75;;;21.58;36.31
51249;BME280;39642;47.556;18.728;2024-02-26T01:34:59;98711.22;;;21.59;36.37
51249;BME280;39642;47.556;18.728;2024-02-26T01:37:25;98697.16;;;21.58;36.46
51249;BME280;39642;47.556;18.728;2024-02-26T01:39:51;98702.44;;;21.58;36.45
51249;BME280;39642;47.556;18.728;2024-02-26T01:42:17;98710.41;;;21.58;36.46
51249;BME280;39642;47.556;18.728;2024-02-26T01:44:43;98713.03;;;21.58;36.47
51249;BME280;39642;47.556;18.728;2024-02-26T01:47:11;98716.69;;;21.57;36.47
51249;BME280;39642;47.556;18.728;2024-02-26T01:49:38;98717.50;;;21.58;36.39
51249;BME280;39642;47.556;18.728;2024-02-26T01:52:06;98721.00;;;21.58;36.48
51249;BME280;39642;47.556;18.728;2024-02-26T01:54:34;98718.34;;;21.58;36.43
51249;BME280;39642;47.556;18.728;2024-02-26T01:57:06;98713.87;;;21.59;36.45
51249;BME280;39642;47.556;18.728;2024-02-26T01:59:34;98720.03;;;21.59;36.47
51249;BME280;39642;47.556;18.728;2024-02-26T02:02:01;98721.81;;;21.59;36.45
51249;BME280;39642;47.556;18.728;2024-02-26T02:04:29;98710.28;;;21.60;36.42
51249;BME280;39642;47.556;18.728;2024-02-26T02:06:55;98712.09;;;21.59;36.41
51249;BME280;39642;47.556;18.728;2024-02-26T02:09:22;98698.84;;;21.59;36.46
51249;BME280;39642;47.556;18.728;2024-02-26T02:11:49;98693.56;;;21.59;36.44
51249;BME280;39642;47.556;18.728;2024-02-26T02:14:15;98699.69;;;21.60;36.42
51249;BME280;39642;47.556;18.728;2024-02-26T02:16:41;98701.34;;;21.61;36.46
51249;BME280;39642;47.556;18.728;2024-02-26T02:19:07;98710.28;;;21.60;36.48
51249;BME280;39642;47.556;18.728;2024-02-26T02:21:33;98712.94;;;21.60;36.46
51249;BME280;39642;47.556;18.728;2024-02-26T02:23:59;98719.06;;;21.60;36.52
51249;BME280;39642;47.556;18.728;2024-02-26T02:26:24;98721.72;;;21.60;36.49
51249;BME280;39642;47.556;18.728;2024-02-26T02:28:50;98719.06;;;21.60;36.49
51249;BME280;39642;47.556;18.728;2024-02-26T02:31:16;98712.94;;;21.60;36.45
51249;BME280;39642;47.556;18.728;2024-02-26T02:33:43;98712.94;;;21.60;36.44
51249;BME280;39642;47.556;18.728;2024-02-26T02:36:09;98704.16;;;21.59;36.54
51249;BME280;39642;47.556;18.728;2024-02-26T02:38:48;98711.22;;;21.59;36.53
51249;BME280;39642;47.556;18.728;2024-02-26T02:41:15;98705.94;;;21.59;36.53
51249;BME280;39642;47.556;18.728;2024-02-26T02:43:41;98708.72;;;21.57;36.53
51249;BME280;39642;47.556;18.728;2024-02-26T02:46:07;98716.53;;;21.59;36.56
51249;BME280;39642;47.556;18.728;2024-02-26T02:48:33;98714.03;;;21.57;36.61
51249;BME280;39642;47.556;18.728;2024-02-26T02:50:59;98713.03;;;21.58;36.56
51249;BME280;39642;47.556;18.728;2024-02-26T02:53:24;98704.28;;;21.58;36.67
51249;BME280;39642;47.556;18.728;2024-02-26T02:55:50;98706.09;;;21.57;36.57
51249;BME280;39642;47.556;18.728;2024-02-26T02:58:16;98704.28;;;21.58;36.60
51249;BME280;39642;47.556;18.728;2024-02-26T03:00:42;98711.38;;;21.57;36.64
51249;BME280;39642;47.556;18.728;2024-02-26T03:03:08;98702.56;;;21.57;36.62
51249;BME280;39642;47.556;18.728;2024-02-26T03:05:34;98706.91;;;21.58;36.65
51249;BME280;39642;47.556;18.728;2024-02-26T03:08:00;98710.41;;;21.58;36.64
51249;BME280;39642;47.556;18.728;2024-02-26T03:10:25;98699.81;;;21.58;36.60
51249;BME280;39642;47.556;18.728;2024-02-26T03:12:51;98704.28;;;21.58;36.64
51249;BME280;39642;47.556;18.728;2024-02-26T03:15:17;98698.00;;;21.59;36.66
51249;BME280;39642;47.556;18.728;2024-02-26T03:17:43;98678.62;;;21.58;36.66
51249;BME280;39642;47.556;18.728;2024-02-26T03:20:09;98680.44;;;21.58;36.62
51249;BME280;39642;47.556;18.728;2024-02-26T03:22:35;98684.75;;;21.59;36.66
51249;BME280;39642;47.556;18.728;2024-02-26T03:25:01;98690.91;;;21.59;36.63
51249;BME280;39642;47.556;18.728;2024-02-26T03:27:27;98685.62;;;21.59;36.61
51249;BME280;39642;47.556;18.728;2024-02-26T03:29:53;98685.62;;;21.59;36.60
51249;BME280;39642;47.556;18.728;2024-02-26T03:32:19;98677.66;;;21.59;36.60
51249;BME280;39642;47.556;18.728;2024-02-26T03:34:45;98684.63;;;21.60;36.64
51249;BME280;39642;47.556;18.728;2024-02-26T03:37:10;98689.94;;;21.60;36.63
51249;BME280;39642;47.556;18.728;2024-02-26T03:39:37;98690.75;;;21.61;36.63
51249;BME280;39642;47.556;18.728;2024-02-26T03:42:03;98681.16;;;21.60;36.61
51249;BME280;39642;47.556;18.728;2024-02-26T03:44:29;98676.69;;;21.60;36.62
51249;BME280;39642;47.556;18.728;2024-02-26T03:46:55;98671.38;;;21.60;36.62
51249;BME280;39642;47.556;18.728;2024-02-26T03:49:21;98678.50;;;21.60;36.62
51249;BME280;39642;47.556;18.728;2024-02-26T03:51:48;98675.03;;;21.59;36.56
51249;BME280;39642;47.556;18.728;2024-02-26T03:54:14;98673.19;;;21.60;36.61
51249;BME280;39642;47.556;18.728;2024-02-26T03:56:39;98672.38;;;21.59;36.63
51249;BME280;39642;47.556;18.728;2024-02-26T03:59:05;98666.19;;;21.59;36.64
51249;BME280;39642;47.556;18.728;2024-02-26T04:01:31;98665.38;;;21.58;36.62
51249;BME280;39642;47.556;18.728;2024-02-26T04:03:57;98668.03;;;21.58;36.62
51249;BME280;39642;47.556;18.728;2024-02-26T04:06:23;98661.78;;;21.59;36.64
51249;BME280;39642;47.556;18.728;2024-02-26T04:08:49;98659.25;;;21.58;36.62
51249;BME280;39642;47.556;18.728;2024-02-26T04:11:15;98661.88;;;21.58;36.70
51249;BME280;39642;47.556;18.728;2024-02-26T04:13:44;98667.19;;;21.58;36.65
51249;BME280;39642;47.556;18.728;2024-02-26T04:16:15;98664.53;;;21.58;36.70
51249;BME280;39642;47.556;18.728;2024-02-26T04:18:42;98666.34;;;21.57;36.71
51249;BME280;39642;47.556;18.728;2024-02-26T04:21:08;98669.00;;;21.57;36.71
51249;BME280;39642;47.556;18.728;2024-02-26T04:23:34;98671.66;;;21.57;36.71
51249;BME280;39642;47.556;18.728;2024-02-26T04:26:00;98666.34;;;21.57;36.69
51249;BME280;39642;47.556;18.728;2024-02-26T04:28:25;98662.84;;;21.57;36.71
51249;BME280;39642;47.556;18.728;2024-02-26T04:30:55;98655.75;;;21.57;36.70
51249;BME280;39642;47.556;18.728;2024-02-26T04:33:21;98669.00;;;21.57;36.65
51249;BME280;39642;47.556;18.728;2024-02-26T04:35:47;98660.06;;;21.58;36.71
51249;BME280;39642;47.556;18.728;2024-02-26T04:38:13;98664.53;;;21.58;36.65
51249;BME280;39642;47.556;18.728;2024-02-26T04:40:39;98663.56;;;21.59;36.71
51249;BME280;39642;47.556;18.728;2024-02-26T04:43:04;98665.38;;;21.58;36.69
51249;BME280;39642;47.556;18.728;2024-02-26T04:45:30;98666.19;;;21.59;36.70
51249;BME280;39642;47.556;18.728;2024-02-26T04:47:56;98664.41;;;21.59;36.64
51249;BME280;39642;47.556;18.728;2024-02-26T04:50:22;98664.41;;;21.59;36.63
51249;BME280;39642;47.556;18.728;2024-02-26T04:52:48;98662.59;;;21.60;36.63
51249;BME280;39642;47.556;18.728;2024-02-26T04:55:14;98668.75;;;21.60;36.66
51249;BME280;39642;47.556;18.728;2024-02-26T04:57:40;98671.38;;;21.60;36.59
51249;BME280;39642;47.556;18.728;2024-02-26T05:00:06;98663.56;;;21.59;36.60
51249;BME280;39642;47.556;18.728;2024-02-26T05:02:32;98676.69;;;21.60;36.61
51249;BME280;39642;47.556;18.728;2024-02-26T05:04:59;98671.50;;;21.59;36.63
51249;BME280;39642;47.556;18.728;2024-02-26T05:07:25;98674.03;;;21.60;36.58
51249;BME280;39642;47.556;18.728;2024-02-26T05:09:50;98666.19;;;21.59;36.66
51249;BME280;39642;47.556;18.728;2024-02-26T05:12:16;98668.84;;;21.59;36.60
51249;BME280;39642;47.556;18.728;2024-02-26T05:14:42;98663.56;;;21.59;36.62
51249;BME280;39642;47.556;18.728;2024-02-26T05:17:08;98662.72;;;21.58;36.61
51249;BME280;39642;47.556;18.728;2024-02-26T05:19:34;98666.34;;;21.57;36.67
51249;BME280;39642;47.556;18.728;2024-02-26T05:22:00;98657.41;;;21.58;36.70
51249;BME280;39642;47.556;18.728;2024-02-26T05:24:26;98655.75;;;21.57;36.61
51249;BME280;39642;47.556;18.728;2024-02-26T05:26:53;98649.59;;;21.57;36.64
51249;BME280;39642;47.556;18.728;2024-02-26T05:29:19;98648.75;;;21.56;36.64
51249;BME280;39642;47.556;18.728;2024-02-26T05:31:44;98648.75;;;21.56;36.66
51249;BME280;39642;47.556;18.728;2024-02-26T05:34:10;98650.47;;;21.57;36.70
51249;BME280;39642;47.556;18.728;2024-02-26T05:36:36;98656.69;;;21.56;36.71
51249;BME280;39642;47.556;18.728;2024-02-26T05:39:02;98659.34;;;21.56;36.68
51249;BME280;39642;47.556;18.728;2024-02-26T05:41:29;98648.75;;;21.56;36.72
51249;BME280;39642;47.556;18.728;2024-02-26T05:43:55;98655.88;;;21.56;36.72
51249;BME280;39642;47.556;18.728;2024-02-26T05:46:22;98656.69;;;21.56;36.76
51249;BME280;39642;47.556;18.728;2024-02-26T05:48:50;98661.16;;;21.56;36.73
51249;BME280;39642;47.556;18.728;2024-02-26T05:51:16;98669.94;;;21.56;36.71
51249;BME280;39642;47.556;18.728;2024-02-26T05:53:43;98661.88;;;21.58;36.72
51249;BME280;39642;47.556;18.728;2024-02-26T05:56:09;98665.47;;;21.57;36.73
51249;BME280;39642;47.556;18.728;2024-02-26T05:58:35;98666.34;;;21.57;36.75
51249;BME280;39642;47.556;18.728;2024-02-26T06:01:01;98675.13;;;21.58;36.76
51249;BME280;39642;47.556;18.728;2024-02-26T06:03:27;98675.13;;;21.58;36.75
51249;BME280;39642;47.556;18.728;2024-02-26T06:05:53;98675.97;;;21.58;36.72
51249;BME280;39642;47.556;18.728;2024-02-26T06:08:18;98680.31;;;21.59;36.64
51249;BME280;39642;47.556;18.728;2024-02-26T06:10:44;98682.97;;;21.59;36.71
51249;BME280;39642;47.556;18.728;2024-02-26T06:13:11;98682.97;;;21.59;36.73
51249;BME280;39642;47.556;18.728;2024-02-26T06:15:37;98692.59;;;21.60;36.66
51249;BME280;39642;47.556;18.728;2024-02-26T06:18:02;98695.22;;;21.60;36.67
51249;BME280;39642;47.556;18.728;2024-02-26T06:20:28;98705.81;;;21.60;36.63
51249;BME280;39642;47.556;18.728;2024-02-26T06:22:54;98699.53;;;21.61;36.67
51249;BME280;39642;47.556;18.728;2024-02-26T06:25:20;98706.66;;;21.61;36.68
51249;BME280;39642;47.556;18.728;2024-02-26T06:27:46;98700.53;;;21.60;36.69
51249;BME280;39642;47.556;18.728;2024-02-26T06:30:12;98696.06;;;21.61;36.66
51249;BME280;39642;47.556;18.728;2024-02-26T06:32:38;98700.53;;;21.60;36.62
51249;BME280;39642;47.556;18.728;2024-02-26T06:35:04;98700.53;;;21.60;36.66
51249;BME280;39642;47.556;18.728;2024-02-26T06:37:35;98706.66;;;21.61;36.71
51249;BME280;39642;47.556;18.728;2024-02-26T06:40:02;98718.22;;;21.60;36.64
51249;BME280;39642;47.556;18.728;2024-02-26T06:42:32;98700.53;;;21.60;36.66
51249;BME280;39642;47.556;18.728;2024-02-26T06:44:58;98707.63;;;21.60;36.68
51249;BME280;39642;47.556;18.728;2024-02-26T06:47:24;98705.00;;;21.60;36.70
51249;BME280;39642;47.556;18.728;2024-02-26T06:49:51;98704.16;;;21.59;36.73
51249;BME280;39642;47.556;18.728;2024-02-26T06:52:17;98695.34;;;21.59;36.67
51249;BME280;39642;47.556;18.728;2024-02-26T06:54:43;98692.69;;;21.59;36.68
51249;BME280;39642;47.556;18.728;2024-02-26T06:57:10;98688.25;;;21.59;36.71
51249;BME280;39642;47.556;18.728;2024-02-26T06:59:36;98698.00;;;21.59;36.69
51249;BME280;39642;47.556;18.728;2024-02-26T07:02:02;98694.50;;;21.58;36.71
51249;BME280;39642;47.556;18.728;2024-02-26T07:04:28;98691.84;;;21.58;36.77
51249;BME280;39642;47.556;18.728;2024-02-26T07:06:54;98694.50;;;21.58;36.71
51249;BME280;39642;47.556;18.728;2024-02-26T07:09:20;98702.44;;;21.58;36.78
51249;BME280;39642;47.556;18.728;2024-02-26T07:11:46;98695.34;;;21.59;36.78
51249;BME280;39642;47.556;18.728;2024-02-26T07:14:12;98697.16;;;21.58;36.77
51249;BME280;39642;47.556;18.728;2024-02-26T07:16:38;98703.28;;;21.59;36.77
51249;BME280;39642;47.556;18.728;2024-02-26T07:19:04;98704.16;;;21.59;36.78
51249;BME280;39642;47.556;18.728;2024-02-26T07:21:30;98703.28;;;21.59;36.78
51249;BME280;39642;47.556;18.728;2024-02-26T07:23:56;98705.81;;;21.60;36.80
51249;BME280;39642;47.556;18.728;2024-02-26T07:26:22;98711.13;;;21.60;36.83
51249;BME280;39642;47.556;18.728;2024-02-26T07:28:50;98705.00;;;21.60;36.75
51249;BME280;39642;47.556;18.728;2024-02-26T07:31:17;98711.97;;;21.61;36.75
51249;BME280;39642;47.556;18.728;2024-02-26T07:33:43;98710.12;;;21.61;36.76
51249;BME280;39642;47.556;18.728;2024-02-26T07:36:09;98709.31;;;21.61;36.76
51249;BME280;39642;47.556;18.728;2024-02-26T07:38:35;98716.31;;;21.62;36.77
51249;BME280;39642;47.556;18.728;2024-02-26T07:41:02;98722.44;;;21.62;36.73
51249;BME280;39642;47.556;18.728;2024-02-26T07:43:28;98725.09;;;21.62;36.81
51249;BME280;39642;47.556;18.728;2024-02-26T07:45:54;98716.31;;;21.62;36.82
51249;BME280;39642;47.556;18.728;2024-02-26T07:48:20;98718.09;;;21.61;36.80
51249;BME280;39642;47.556;18.728;2024-02-26T07:50:46;98725.09;;;21.62;36.80
51249;BME280;39642;47.556;18.728;2024-02-26T07:53:13;98731.22;;;21.63;36.82
51249;BME280;39642;47.556;18.728;2024-02-26T07:55:39;98715.31;;;21.63;36.91
51249;BME280;39642;47.556;18.728;2024-02-26T07:58:04;98726.75;;;21.63;36.76
51249;BME280;39642;47.556;18.728;2024-02-26T08:00:30;98725.94;;;21.63;36.79
51249;BME280;39642;47.556;18.728;2024-02-26T08:02:56;98737.34;;;21.63;36.93
51249;BME280;39642;47.556;18.728;2024-02-26T08:05:22;98733.88;;;21.63;36.94
51249;BME280;39642;47.556;18.728;2024-02-26T08:07:48;98729.56;;;21.62;36.85
51249;BME280;39642;47.556;18.728;2024-02-26T08:10:14;98731.22;;;21.63;36.87
51249;BME280;39642;47.556;18.728;2024-02-26T08:12:40;98734.84;;;21.62;36.89
51249;BME280;39642;47.556;18.728;2024-02-26T08:15:06;98733.97;;;21.61;36.88
51249;BME280;39642;47.556;18.728;2024-02-26T08:17:32;98737.63;;;21.60;36.88
51249;BME280;39642;47.556;18.728;2024-02-26T08:19:59;98734.97;;;21.60;36.92
51249;BME280;39642;47.556;18.728;2024-02-26T08:22:25;98732.31;;;21.60;36.89
51249;BME280;39642;47.556;18.728;2024-02-26T08:24:51;98732.31;;;21.60;36.92
51249;BME280;39642;47.556;18.728;2024-02-26T08:27:17;98729.66;;;21.60;36.96
51249;BME280;39642;47.556;18.728;2024-02-26T08:29:43;98731.47;;;21.60;37.01
51249;BME280;39642;47.556;18.728;2024-02-26T08:32:09;98727.03;;;21.60;37.11
51249;BME280;39642;47.556;18.728;2024-02-26T08:34:35;98726.19;;;21.60;37.03
51249;BME280;39642;47.556;18.728;2024-02-26T08:37:00;98729.78;;;21.59;37.17
51249;BME280;39642;47.556;18.728;2024-02-26T08:39:26;98725.34;;;21.59;37.10
51249;BME280;39642;47.556;18.728;2024-02-26T08:41:52;98727.03;;;21.60;37.02
51249;BME280;39642;47.556;18.728;2024-02-26T08:44:18;98729.66;;;21.60;37.07
51249;BME280;39642;47.556;18.728;2024-02-26T08:46:44;98727.03;;;21.60;36.98
51249;BME280;39642;47.556;18.728;2024-02-26T08:49:11;98733.16;;;21.61;37.09
51249;BME280;39642;47.556;18.728;2024-02-26T08:51:43;98729.56;;;21.62;37.10
51249;BME280;39642;47.556;18.728;2024-02-26T08:54:09;98732.19;;;21.62;37.17
51249;BME280;39642;47.556;18.728;2024-02-26T08:56:36;98729.56;;;21.62;37.19
51249;BME280;39642;47.556;18.728;2024-02-26T08:59:01;98726.75;;;21.63;36.97
51249;BME280;39642;47.556;18.728;2024-02-26T09:01:31;98724.00;;;21.65;36.95
51249;BME280;39642;47.556;18.728;2024-02-26T09:03:57;98728.47;;;21.65;36.97
51249;BME280;39642;47.556;18.728;2024-02-26T09:06:23;98734.59;;;21.65;37.04
51249;BME280;39642;47.556;18.728;2024-02-26T09:08:48;98736.28;;;21.66;36.92
51249;BME280;39642;47.556;18.728;2024-02-26T09:11:14;98735.31;;;21.67;36.93
51249;BME280;39642;47.556;18.728;2024-02-26T09:13:40;98730.84;;;21.68;36.98
51249;BME280;39642;47.556;18.728;2024-02-26T09:16:06;98731.69;;;21.68;36.91
51249;BME280;39642;47.556;18.728;2024-02-26T09:18:32;98736.16;;;21.68;36.88
51249;BME280;39642;47.556;18.728;2024-02-26T09:20:58;98739.62;;;21.68;37.07
51249;BME280;39642;47.556;18.728;2024-02-26T09:23:24;98742.16;;;21.70;36.86
51249;BME280;39642;47.556;18.728;2024-02-26T09:25:49;98746.53;;;21.71;37.09
51249;BME280;39642;47.556;18.728;2024-02-26T09:28:15;98734.94;;;21.72;37.06
51249;BME280;39642;47.556;18.728;2024-02-26T09:30:45;98734.94;;;21.72;37.00
51249;BME280;39642;47.556;18.728;2024-02-26T09:33:11;98736.63;;;21.73;37.00
51249;BME280;39642;47.556;18.728;2024-02-26T09:35:39;98737.59;;;21.72;37.02
51249;BME280;39642;47.556;18.728;2024-02-26T09:38:04;98732.28;;;21.72;37.02
51249;BME280;39642;47.556;18.728;2024-02-26T09:40:30;98733.13;;;21.72;37.08
51249;BME280;39642;47.556;18.728;2024-02-26T09:42:59;98742.91;;;21.72;37.09
51249;BME280;39642;47.556;18.728;2024-02-26T09:45:28;98743.72;;;21.72;37.08
51249;BME280;39642;47.556;18.728;2024-02-26T09:47:55;98746.53;;;21.71;37.22
51249;BME280;39642;47.556;18.728;2024-02-26T09:50:21;98755.31;;;21.71;37.19
51249;BME280;39642;47.556;18.728;2024-02-26T09:52:49;98749.16;;;21.71;37.25
51249;BME280;39642;47.556;18.728;2024-02-26T09:55:15;98750.00;;;21.71;37.26
51249;BME280;39642;47.556;18.728;2024-02-26T09:57:45;98748.19;;;21.72;37.20
51249;BME280;39642;47.556;18.728;2024-02-26T10:00:18;98752.50;;;21.73;37.15
51249;BME280;39642;47.556;18.728;2024-02-26T10:02:48;98753.50;;;21.72;37.16
51249;BME280;39642;47.556;18.728;2024-02-26T10:05:16;98750.84;;;21.72;37.16
51249;BME280;39642;47.556;18.728;2024-02-26T10:07:44;98746.38;;;21.72;37.11
51249;BME280;39642;47.556;18.728;2024-02-26T10:10:10;98740.25;;;21.72;37.31
51249;BME280;39642;47.556;18.728;2024-02-26T10:12:36;98750.84;;;21.72;37.16
51249;BME280;39642;47.556;18.728;2024-02-26T10:15:02;98746.53;;;21.71;37.17
51249;BME280;39642;47.556;18.728;2024-02-26T10:17:28;98748.31;;;21.70;37.15
51249;BME280;39642;47.556;18.728;2024-02-26T10:19:54;98747.47;;;21.70;37.19
51249;BME280;39642;47.556;18.728;2024-02-26T10:22:35;98747.47;;;21.70;37.27
51249;BME280;39642;47.556;18.728;2024-02-26T10:25:01;98744.81;;;21.70;37.34
51249;BME280;39642;47.556;18.728;2024-02-26T10:27:28;98744.94;;;21.68;37.33
51249;BME280;39642;47.556;18.728;2024-02-26T10:29:56;98744.94;;;21.68;37.30
51249;BME280;39642;47.556;18.728;2024-02-26T10:32:22;98743.16;;;21.69;37.35
51249;BME280;39642;47.556;18.728;2024-02-26T10:34:48;98737.97;;;21.67;37.38
51249;BME280;39642;47.556;18.728;2024-02-26T10:37:14;98733.50;;;21.68;37.26
51249;BME280;39642;47.556;18.728;2024-02-26T10:39:46;98730.84;;;21.68;37.32
51249;BME280;39642;47.556;18.728;2024-02-26T10:42:12;98727.38;;;21.67;37.36
51249;BME280;39642;47.556;18.728;2024-02-26T10:44:40;98726.53;;;21.67;37.29
51249;BME280;39642;47.556;18.728;2024-02-26T10:47:07;98722.19;;;21.66;37.39
51249;BME280;39642;47.556;18.728;2024-02-26T10:49:35;98722.91;;;21.68;37.32
51249;BME280;39642;47.556;18.728;2024-02-26T10:52:04;98731.00;;;21.66;37.33
51249;BME280;39642;47.556;18.728;2024-02-26T10:54:32;98730.13;;;21.66;37.30
51249;BME280;39642;47.556;18.728;2024-02-26T10:57:00;98735.44;;;21.66;37.43
51249;BME280;39642;47.556;18.728;2024-02-26T10:59:27;98731.94;;;21.65;37.48
51249;BME280;39642;47.556;18.728;2024-02-26T11:01:54;98729.28;;;21.65;37.31
51249;BME280;39642;47.556;18.728;2024-02-26T11:04:21;98738.06;;;21.66;37.34
51249;BME280;39642;47.556;18.728;2024-02-26T11:06:49;98727.47;;;21.66;37.29
51249;BME280;39642;47.556;18.728;2024-02-26T11:09:16;98727.47;;;21.66;37.34
51249;BME280;39642;47.556;18.728;2024-02-26T11:11:43;98726.66;;;21.65;37.39
51249;BME280;39642;47.556;18.728;2024-02-26T11:14:10;98715.22;;;21.65;37.34
51249;BME280;39642;47.556;18.728;2024-02-26T11:16:39;98715.22;;;21.65;37.40
51249;BME280;39642;47.556;18.728;2024-02-26T11:19:08;98708.09;;;21.65;37.36
51249;BME280;39642;47.556;18.728;2024-02-26T11:21:35;98708.09;;;21.65;37.42
51249;BME280;39642;47.556;18.728;2024-02-26T11:24:11;98705.44;;;21.65;37.51
51249;BME280;39642;47.556;18.728;2024-02-26T11:26:42;98707.16;;;21.66;37.52
51249;BME280;39642;47.556;18.728;2024-02-26T11:29:12;98714.22;;;21.66;37.38
51249;BME280;39642;47.556;18.728;2024-02-26T11:31:39;98706.28;;;21.66;37.48
51249;BME280;39642;47.556;18.728;2024-02-26T11:34:07;98713.41;;;21.65;37.44
51249;BME280;39642;47.556;18.728;2024-02-26T11:36:36;98710.63;;;21.67;37.52
51249;BME280;39642;47.556;18.728;2024-02-26T11:39:04;98701.72;;;21.68;37.38
51249;BME280;39642;47.556;18.728;2024-02-26T11:41:30;98700.88;;;21.67;37.42
51249;BME280;39642;47.556;18.728;2024-02-26T11:44:01;98705.34;;;21.67;37.32
51249;BME280;39642;47.556;18.728;2024-02-26T11:51:27;98700.75;;;21.69;37.29
51249;BME280;39642;47.556;18.728;2024-02-26T11:53:54;98706.19;;;21.67;37.52
51249;BME280;39642;47.556;18.728;2024-02-26T11:56:23;98706.06;;;21.69;37.49
51249;BME280;39642;47.556;18.728;2024-02-26T11:59:04;98710.50;;;21.68;37.54
51249;BME280;39642;47.556;18.728;2024-02-26T12:04:13;98715.69;;;21.70;37.44
51249;BME280;39642;47.556;18.728;2024-02-26T12:07:01;98720.16;;;21.69;37.38
51249;BME280;39642;47.556;18.728;2024-02-26T12:09:41;98715.78;;;21.68;37.38
51249;BME280;39642;47.556;18.728;2024-02-26T12:12:13;98719.31;;;21.69;37.43
51249;BME280;39642;47.556;18.728;2024-02-26T12:14:53;98711.47;;;21.67;37.48
51249;BME280;39642;47.556;18.728;2024-02-26T12:17:24;98718.44;;;21.68;37.38
51249;BME280;39642;47.556;18.728;2024-02-26T12:19:51;98712.44;;;21.66;37.45
51249;BME280;39642;47.556;18.728;2024-02-26T12:22:19;98716.88;;;21.66;37.47
51249;BME280;39642;47.556;18.728;2024-02-26T12:24:45;98714.22;;;21.66;37.52
51249;BME280;39642;47.556;18.728;2024-02-26T12:27:11;98712.56;;;21.65;37.50
51249;BME280;39642;47.556;18.728;2024-02-26T12:29:37;98708.94;;;21.66;37.52
51249;BME280;39642;47.556;18.728;2024-02-26T12:32:04;98704.63;;;21.65;37.50
51249;BME280;39642;47.556;18.728;2024-02-26T12:34:31;98710.03;;;21.63;37.52
51249;BME280;39642;47.556;18.728;2024-02-26T12:36:57;98704.63;;;21.65;37.53
51249;BME280;39642;47.556;18.728;2024-02-26T12:39:23;98701.97;;;21.65;37.56
51249;BME280;39642;47.556;18.728;2024-02-26T12:41:50;98713.50;;;21.63;37.59
51249;BME280;39642;47.556;18.728;2024-02-26T12:44:16;98711.84;;;21.62;37.63
51249;BME280;39642;47.556;18.728;2024-02-26T12:46:42;98717.12;;;21.62;37.50
51249;BME280;39642;47.556;18.728;2024-02-26T12:49:08;98715.31;;;21.63;37.54
51249;BME280;39642;47.556;18.728;2024-02-26T12:51:40;98717.12;;;21.62;37.54
51249;BME280;39642;47.556;18.728;2024-02-26T12:54:08;98723.38;;;21.61;37.57
51249;BME280;39642;47.556;18.728;2024-02-26T12:56:35;98721.59;;;21.62;37.64